sensor_id;sensor_type;location;lat;lon;timestamp;P1;durP1;ratioP1;P2;durP2;ratioP2
75488;SDS011;64069;46.396;48.102;2023-09-18T00:00:43;8.63;;;4.78;;
75488;SDS011;64069;46.396;48.102;2023-09-18T00:03:10;8.65;;;4.53;;
75488;SDS011;64069;46.396;48.102;2023-09-18T00:05:36;9.68;;;4.97;;
75488;SDS011;64069;46.396;48.102;2023-09-18T00:08:02;8.20;;;4.43;;
75488;SDS011;64069;46.396;48.102;2023-09-18T00:10:28;8.88;;;4.50;;
75488;SDS011;64069;46.396;48.102;2023-09-18T00:12:57;7.78;;;4.45;;
75488;SDS011;64069;46.396;48.102;2023-09-18T00:15:23;8.52;;;4.95;;
75488;SDS011;64069;46.396;48.102;2023-09-18T00:17:50;10.40;;;5.00;;
75488;SDS011;64069;46.396;48.102;2023-09-18T00:20:16;7.93;;;4.50;;
75488;SDS011;64069;46.396;48.102;2023-09-18T00:22:43;8.88;;;5.20;;
75488;SDS011;64069;46.396;48.102;2023-09-18T00:25:09;11.35;;;4.97;;
75488;SDS011;64069;46.396;48.102;2023-09-18T00:27:34;9.77;;;4.50;;
75488;SDS011;64069;46.396;48.102;2023-09-18T00:30:04;8.65;;;4.97;;
75488;SDS011;64069;46.396;48.102;2023-09-18T00:32:31;10.35;;;5.35;;
75488;SDS011;64069;46.396;48.102;2023-09-18T00:34:57;8.98;;;4.68;;
75488;SDS011;64069;46.396;48.102;2023-09-18T00:37:23;8.82;;;4.88;;
75488;SDS011;64069;46.396;48.102;2023-09-18T00:39:49;8.68;;;4.82;;
75488;SDS011;64069;46.396;48.102;2023-09-18T00:42:15;10.90;;;5.28;;
75488;SDS011;64069;46.396;48.102;2023-09-18T00:44:44;9.65;;;4.70;;
75488;SDS011;64069;46.396;48.102;2023-09-18T00:47:10;9.55;;;4.80;;
75488;SDS011;64069;46.396;48.102;2023-09-18T00:49:38;7.90;;;4.50;;
75488;SDS011;64069;46.396;48.102;2023-09-18T00:52:07;9.45;;;4.95;;
75488;SDS011;64069;46.396;48.102;2023-09-18T00:54:34;9.30;;;5.43;;
75488;SDS011;64069;46.396;48.102;2023-09-18T00:57:02;9.77;;;4.90;;
75488;SDS011;64069;46.396;48.102;2023-09-18T00:59:29;9.95;;;5.00;;
75488;SDS011;64069;46.396;48.102;2023-09-18T01:01:56;8.32;;;4.75;;
75488;SDS011;64069;46.396;48.102;2023-09-18T01:04:22;8.70;;;5.22;;
75488;SDS011;64069;46.396;48.102;2023-09-18T01:06:50;8.52;;;4.63;;
75488;SDS011;64069;46.396;48.102;2023-09-18T01:09:19;8.75;;;5.10;;
75488;SDS011;64069;46.396;48.102;2023-09-18T01:12:08;8.95;;;5.13;;
75488;SDS011;64069;46.396;48.102;2023-09-18T01:17:29;8.35;;;4.82;;
75488;SDS011;64069;46.396;48.102;2023-09-18T01:19:56;6.93;;;3.90;;
75488;SDS011;64069;46.396;48.102;2023-09-18T01:22:22;7.38;;;4.47;;
75488;SDS011;64069;46.396;48.102;2023-09-18T01:24:48;7.72;;;4.43;;
75488;SDS011;64069;46.396;48.102;2023-09-18T01:27:15;7.55;;;4.03;;
75488;SDS011;64069;46.396;48.102;2023-09-18T01:29:42;9.18;;;4.53;;
75488;SDS011;64069;46.396;48.102;2023-09-18T01:32:09;7.68;;;3.90;;
75488;SDS011;64069;46.396;48.102;2023-09-18T01:34:36;7.55;;;3.75;;
75488;SDS011;64069;46.396;48.102;2023-09-18T01:37:07;11.23;;;4.90;;
75488;SDS011;64069;46.396;48.102;2023-09-18T01:39:34;8.75;;;4.65;;
75488;SDS011;64069;46.396;48.102;2023-09-18T01:42:02;8.52;;;4.80;;
75488;SDS011;64069;46.396;48.102;2023-09-18T01:44:30;9.52;;;4.72;;
75488;SDS011;64069;46.396;48.102;2023-09-18T01:47:01;8.13;;;4.85;;
75488;SDS011;64069;46.396;48.102;2023-09-18T01:49:34;7.30;;;4.30;;
75488;SDS011;64069;46.396;48.102;2023-09-18T01:52:02;10.00;;;4.97;;
75488;SDS011;64069;46.396;48.102;2023-09-18T01:54:30;7.63;;;4.38;;
75488;SDS011;64069;46.396;48.102;2023-09-18T01:56:56;8.07;;;4.70;;
75488;SDS011;64069;46.396;48.102;2023-09-18T01:59:23;10.02;;;4.30;;
75488;SDS011;64069;46.396;48.102;2023-09-18T02:01:49;9.68;;;4.85;;
75488;SDS011;64069;46.396;48.102;2023-09-18T02:04:16;9.70;;;5.10;;
75488;SDS011;64069;46.396;48.102;2023-09-18T02:06:44;8.05;;;4.43;;
75488;SDS011;64069;46.396;48.102;2023-09-18T02:09:11;9.18;;;4.90;;
75488;SDS011;64069;46.396;48.102;2023-09-18T02:11:41;8.48;;;4.63;;
75488;SDS011;64069;46.396;48.102;2023-09-18T02:14:08;10.55;;;4.70;;
75488;SDS011;64069;46.396;48.102;2023-09-18T02:16:36;8.63;;;4.93;;
75488;SDS011;64069;46.396;48.102;2023-09-18T02:19:03;7.68;;;4.20;;
75488;SDS011;64069;46.396;48.102;2023-09-18T02:21:30;7.68;;;4.53;;
75488;SDS011;64069;46.396;48.102;2023-09-18T02:23:56;11.70;;;4.57;;
75488;SDS011;64069;46.396;48.102;2023-09-18T02:26:23;8.23;;;4.65;;
75488;SDS011;64069;46.396;48.102;2023-09-18T02:28:51;12.25;;;5.20;;
75488;SDS011;64069;46.396;48.102;2023-09-18T02:31:19;12.38;;;5.30;;
75488;SDS011;64069;46.396;48.102;2023-09-18T02:33:45;9.20;;;5.43;;
75488;SDS011;64069;46.396;48.102;2023-09-18T02:36:12;8.07;;;4.95;;
75488;SDS011;64069;46.396;48.102;2023-09-18T02:38:38;11.15;;;5.07;;
75488;SDS011;64069;46.396;48.102;2023-09-18T02:41:04;9.85;;;4.63;;
75488;SDS011;64069;46.396;48.102;2023-09-18T02:43:30;9.27;;;4.70;;
75488;SDS011;64069;46.396;48.102;2023-09-18T02:45:56;11.52;;;5.22;;
75488;SDS011;64069;46.396;48.102;2023-09-18T02:48:23;7.32;;;4.43;;
75488;SDS011;64069;46.396;48.102;2023-09-18T02:50:50;9.30;;;5.03;;
75488;SDS011;64069;46.396;48.102;2023-09-18T02:53:22;8.07;;;4.45;;
75488;SDS011;64069;46.396;48.102;2023-09-18T02:55:53;7.22;;;4.00;;
75488;SDS011;64069;46.396;48.102;2023-09-18T02:58:20;7.07;;;4.10;;
75488;SDS011;64069;46.396;48.102;2023-09-18T03:00:49;8.60;;;4.75;;
75488;SDS011;64069;46.396;48.102;2023-09-18T03:03:16;10.07;;;4.65;;
75488;SDS011;64069;46.396;48.102;2023-09-18T03:05:43;8.13;;;4.88;;
75488;SDS011;64069;46.396;48.102;2023-09-18T03:08:10;7.50;;;4.28;;
75488;SDS011;64069;46.396;48.102;2023-09-18T03:10:40;7.30;;;3.95;;
75488;SDS011;64069;46.396;48.102;2023-09-18T03:13:07;7.85;;;3.95;;
75488;SDS011;64069;46.396;48.102;2023-09-18T03:15:34;7.22;;;4.18;;
75488;SDS011;64069;46.396;48.102;2023-09-18T03:18:02;7.78;;;4.53;;
75488;SDS011;64069;46.396;48.102;2023-09-18T03:20:29;7.88;;;3.95;;
75488;SDS011;64069;46.396;48.102;2023-09-18T03:23:00;7.50;;;4.22;;
75488;SDS011;64069;46.396;48.102;2023-09-18T03:27:54;7.70;;;3.90;;
75488;SDS011;64069;46.396;48.102;2023-09-18T03:30:24;5.85;;;3.35;;
75488;SDS011;64069;46.396;48.102;2023-09-18T03:32:51;10.93;;;4.00;;
75488;SDS011;64069;46.396;48.102;2023-09-18T03:35:28;6.80;;;3.92;;
75488;SDS011;64069;46.396;48.102;2023-09-18T03:37:56;6.43;;;3.60;;
75488;SDS011;64069;46.396;48.102;2023-09-18T03:40:22;6.45;;;3.83;;
75488;SDS011;64069;46.396;48.102;2023-09-18T03:42:49;6.82;;;3.88;;
75488;SDS011;64069;46.396;48.102;2023-09-18T03:45:15;7.82;;;3.72;;
75488;SDS011;64069;46.396;48.102;2023-09-18T03:47:45;8.02;;;3.80;;
75488;SDS011;64069;46.396;48.102;2023-09-18T03:50:11;5.63;;;3.78;;
75488;SDS011;64069;46.396;48.102;2023-09-18T03:52:39;7.22;;;3.65;;
75488;SDS011;64069;46.396;48.102;2023-09-18T03:55:06;6.70;;;3.70;;
75488;SDS011;64069;46.396;48.102;2023-09-18T03:57:33;8.82;;;4.10;;
75488;SDS011;64069;46.396;48.102;2023-09-18T03:59:59;6.85;;;4.28;;
75488;SDS011;64069;46.396;48.102;2023-09-18T04:02:25;7.38;;;3.67;;
75488;SDS011;64069;46.396;48.102;2023-09-18T04:04:53;7.75;;;4.43;;
75488;SDS011;64069;46.396;48.102;2023-09-18T04:07:19;6.95;;;3.92;;
75488;SDS011;64069;46.396;48.102;2023-09-18T04:09:46;9.05;;;3.95;;
75488;SDS011;64069;46.396;48.102;2023-09-18T04:12:12;8.15;;;3.92;;
75488;SDS011;64069;46.396;48.102;2023-09-18T04:14:39;7.63;;;3.95;;
75488;SDS011;64069;46.396;48.102;2023-09-18T04:17:05;7.30;;;3.92;;
75488;SDS011;64069;46.396;48.102;2023-09-18T04:19:31;7.05;;;3.90;;
75488;SDS011;64069;46.396;48.102;2023-09-18T04:21:57;7.43;;;4.25;;
75488;SDS011;64069;46.396;48.102;2023-09-18T04:24:23;7.28;;;3.97;;
75488;SDS011;64069;46.396;48.102;2023-09-18T04:26:49;6.50;;;4.57;;
75488;SDS011;64069;46.396;48.102;2023-09-18T04:29:17;8.80;;;4.68;;
75488;SDS011;64069;46.396;48.102;2023-09-18T04:31:44;8.55;;;4.57;;
75488;SDS011;64069;46.396;48.102;2023-09-18T04:34:10;8.23;;;4.10;;
75488;SDS011;64069;46.396;48.102;2023-09-18T04:36:36;8.32;;;4.68;;
75488;SDS011;64069;46.396;48.102;2023-09-18T04:39:04;8.88;;;4.43;;
75488;SDS011;64069;46.396;48.102;2023-09-18T04:41:32;6.60;;;3.90;;
75488;SDS011;64069;46.396;48.102;2023-09-18T04:43:59;8.10;;;4.53;;
75488;SDS011;64069;46.396;48.102;2023-09-18T04:46:26;7.38;;;3.97;;
75488;SDS011;64069;46.396;48.102;2023-09-18T04:48:52;6.68;;;3.53;;
75488;SDS011;64069;46.396;48.102;2023-09-18T04:51:18;7.10;;;3.42;;
75488;SDS011;64069;46.396;48.102;2023-09-18T04:53:44;7.95;;;4.10;;
75488;SDS011;64069;46.396;48.102;2023-09-18T04:56:10;6.28;;;4.07;;
75488;SDS011;64069;46.396;48.102;2023-09-18T04:58:37;6.07;;;3.70;;
75488;SDS011;64069;46.396;48.102;2023-09-18T05:01:03;5.97;;;3.47;;
75488;SDS011;64069;46.396;48.102;2023-09-18T05:03:36;5.35;;;3.53;;
75488;SDS011;64069;46.396;48.102;2023-09-18T05:06:02;6.45;;;3.80;;
75488;SDS011;64069;46.396;48.102;2023-09-18T05:08:30;5.85;;;3.47;;
75488;SDS011;64069;46.396;48.102;2023-09-18T05:10:57;5.82;;;3.13;;
75488;SDS011;64069;46.396;48.102;2023-09-18T05:13:23;5.03;;;3.20;;
75488;SDS011;64069;46.396;48.102;2023-09-18T05:15:49;7.38;;;3.17;;
75488;SDS011;64069;46.396;48.102;2023-09-18T05:18:15;5.50;;;2.97;;
75488;SDS011;64069;46.396;48.102;2023-09-18T05:20:41;8.88;;;3.38;;
75488;SDS011;64069;46.396;48.102;2023-09-18T05:23:07;6.50;;;3.10;;
75488;SDS011;64069;46.396;48.102;2023-09-18T05:25:33;4.35;;;2.42;;
75488;SDS011;64069;46.396;48.102;2023-09-18T05:28:03;4.20;;;2.58;;
75488;SDS011;64069;46.396;48.102;2023-09-18T05:30:31;4.07;;;2.60;;
75488;SDS011;64069;46.396;48.102;2023-09-18T05:33:04;3.72;;;2.38;;
75488;SDS011;64069;46.396;48.102;2023-09-18T05:35:32;4.22;;;2.42;;
75488;SDS011;64069;46.396;48.102;2023-09-18T05:38:02;5.05;;;3.20;;
75488;SDS011;64069;46.396;48.102;2023-09-18T05:40:30;5.45;;;3.10;;
75488;SDS011;64069;46.396;48.102;2023-09-18T05:42:57;6.25;;;2.97;;
75488;SDS011;64069;46.396;48.102;2023-09-18T05:45:23;5.07;;;3.00;;
75488;SDS011;64069;46.396;48.102;2023-09-18T05:47:50;5.13;;;2.63;;
75488;SDS011;64069;46.396;48.102;2023-09-18T05:50:16;5.25;;;2.83;;
75488;SDS011;64069;46.396;48.102;2023-09-18T05:52:43;4.18;;;2.70;;
75488;SDS011;64069;46.396;48.102;2023-09-18T05:55:09;6.00;;;2.55;;
75488;SDS011;64069;46.396;48.102;2023-09-18T05:57:36;5.90;;;2.95;;
75488;SDS011;64069;46.396;48.102;2023-09-18T06:00:04;4.03;;;2.60;;
75488;SDS011;64069;46.396;48.102;2023-09-18T06:02:38;3.72;;;2.30;;
75488;SDS011;64069;46.396;48.102;2023-09-18T06:05:05;4.18;;;2.42;;
75488;SDS011;64069;46.396;48.102;2023-09-18T06:07:31;4.22;;;2.30;;
75488;SDS011;64069;46.396;48.102;2023-09-18T06:09:58;3.00;;;2.10;;
75488;SDS011;64069;46.396;48.102;2023-09-18T06:12:24;5.35;;;2.67;;
75488;SDS011;64069;46.396;48.102;2023-09-18T06:14:51;3.35;;;2.20;;
75488;SDS011;64069;46.396;48.102;2023-09-18T06:17:17;3.97;;;2.50;;
75488;SDS011;64069;46.396;48.102;2023-09-18T06:19:43;4.85;;;2.70;;
75488;SDS011;64069;46.396;48.102;2023-09-18T06:22:11;5.68;;;2.55;;
75488;SDS011;64069;46.396;48.102;2023-09-18T06:24:37;4.18;;;2.50;;
75488;SDS011;64069;46.396;48.102;2023-09-18T06:27:03;4.57;;;2.40;;
75488;SDS011;64069;46.396;48.102;2023-09-18T06:29:30;4.10;;;2.30;;
75488;SDS011;64069;46.396;48.102;2023-09-18T06:31:57;4.22;;;2.80;;
75488;SDS011;64069;46.396;48.102;2023-09-18T06:34:24;3.97;;;2.35;;
75488;SDS011;64069;46.396;48.102;2023-09-18T06:36:51;5.72;;;2.33;;
75488;SDS011;64069;46.396;48.102;2023-09-18T06:39:17;4.40;;;2.38;;
75488;SDS011;64069;46.396;48.102;2023-09-18T06:41:43;3.50;;;2.10;;
75488;SDS011;64069;46.396;48.102;2023-09-18T06:44:11;3.55;;;2.22;;
75488;SDS011;64069;46.396;48.102;2023-09-18T06:46:37;4.03;;;2.30;;
75488;SDS011;64069;46.396;48.102;2023-09-18T06:49:05;4.82;;;2.45;;
75488;SDS011;64069;46.396;48.102;2023-09-18T06:51:30;2.75;;;2.03;;
75488;SDS011;64069;46.396;48.102;2023-09-18T06:53:56;4.88;;;2.00;;
75488;SDS011;64069;46.396;48.102;2023-09-18T06:56:25;4.32;;;2.42;;
75488;SDS011;64069;46.396;48.102;2023-09-18T06:58:51;3.60;;;1.85;;
75488;SDS011;64069;46.396;48.102;2023-09-18T07:01:18;4.70;;;2.47;;
75488;SDS011;64069;46.396;48.102;2023-09-18T07:03:47;4.15;;;2.58;;
75488;SDS011;64069;46.396;48.102;2023-09-18T07:06:16;3.88;;;1.90;;
75488;SDS011;64069;46.396;48.102;2023-09-18T07:08:45;2.97;;;1.80;;
75488;SDS011;64069;46.396;48.102;2023-09-18T07:11:15;4.15;;;1.90;;
75488;SDS011;64069;46.396;48.102;2023-09-18T07:13:42;3.25;;;1.67;;
75488;SDS011;64069;46.396;48.102;2023-09-18T07:16:11;4.88;;;2.70;;
75488;SDS011;64069;46.396;48.102;2023-09-18T07:18:37;4.75;;;2.75;;
75488;SDS011;64069;46.396;48.102;2023-09-18T07:21:03;3.75;;;1.95;;
75488;SDS011;64069;46.396;48.102;2023-09-18T07:23:29;3.17;;;2.00;;
75488;SDS011;64069;46.396;48.102;2023-09-18T07:25:55;5.15;;;1.80;;
75488;SDS011;64069;46.396;48.102;2023-09-18T07:28:24;4.55;;;2.15;;
75488;SDS011;64069;46.396;48.102;2023-09-18T07:30:50;3.38;;;2.22;;
75488;SDS011;64069;46.396;48.102;2023-09-18T07:33:16;3.20;;;1.90;;
75488;SDS011;64069;46.396;48.102;2023-09-18T07:35:49;3.20;;;1.83;;
75488;SDS011;64069;46.396;48.102;2023-09-18T07:38:19;3.97;;;2.15;;
75488;SDS011;64069;46.396;48.102;2023-09-18T07:40:45;4.68;;;1.90;;
75488;SDS011;64069;46.396;48.102;2023-09-18T07:43:13;4.22;;;2.10;;
75488;SDS011;64069;46.396;48.102;2023-09-18T07:45:39;6.93;;;2.35;;
75488;SDS011;64069;46.396;48.102;2023-09-18T07:48:08;3.33;;;2.03;;
75488;SDS011;64069;46.396;48.102;2023-09-18T07:50:35;4.93;;;2.30;;
75488;SDS011;64069;46.396;48.102;2023-09-18T07:53:01;4.20;;;2.05;;
75488;SDS011;64069;46.396;48.102;2023-09-18T07:55:27;3.42;;;1.50;;
75488;SDS011;64069;46.396;48.102;2023-09-18T07:57:54;5.30;;;2.10;;
75488;SDS011;64069;46.396;48.102;2023-09-18T08:00:20;4.32;;;2.33;;
75488;SDS011;64069;46.396;48.102;2023-09-18T08:02:48;3.97;;;1.58;;
75488;SDS011;64069;46.396;48.102;2023-09-18T08:05:16;5.22;;;1.80;;
75488;SDS011;64069;46.396;48.102;2023-09-18T08:07:42;2.75;;;1.70;;
75488;SDS011;64069;46.396;48.102;2023-09-18T08:10:08;7.38;;;3.25;;
75488;SDS011;64069;46.396;48.102;2023-09-18T08:12:35;3.72;;;1.92;;
75488;SDS011;64069;46.396;48.102;2023-09-18T08:15:01;2.83;;;1.60;;
75488;SDS011;64069;46.396;48.102;2023-09-18T08:17:28;2.88;;;1.60;;
75488;SDS011;64069;46.396;48.102;2023-09-18T08:19:54;3.20;;;1.70;;
75488;SDS011;64069;46.396;48.102;2023-09-18T08:22:20;4.88;;;1.73;;
75488;SDS011;64069;46.396;48.102;2023-09-18T08:24:48;2.92;;;1.83;;
75488;SDS011;64069;46.396;48.102;2023-09-18T08:27:18;7.50;;;2.50;;
75488;SDS011;64069;46.396;48.102;2023-09-18T08:29:45;4.63;;;1.70;;
75488;SDS011;64069;46.396;48.102;2023-09-18T08:32:11;3.03;;;1.50;;
75488;SDS011;64069;46.396;48.102;2023-09-18T08:34:40;2.97;;;1.40;;
75488;SDS011;64069;46.396;48.102;2023-09-18T08:37:06;3.10;;;1.60;;
75488;SDS011;64069;46.396;48.102;2023-09-18T08:39:34;4.47;;;1.70;;
75488;SDS011;64069;46.396;48.102;2023-09-18T08:42:05;3.78;;;2.17;;
75488;SDS011;64069;46.396;48.102;2023-09-18T08:44:34;4.25;;;2.10;;
75488;SDS011;64069;46.396;48.102;2023-09-18T08:47:04;4.75;;;1.85;;
75488;SDS011;64069;46.396;48.102;2023-09-18T08:49:34;3.85;;;1.90;;
75488;SDS011;64069;46.396;48.102;2023-09-18T08:52:01;3.28;;;1.50;;
75488;SDS011;64069;46.396;48.102;2023-09-18T08:54:28;3.60;;;1.63;;
75488;SDS011;64069;46.396;48.102;2023-09-18T08:56:54;3.78;;;1.77;;
75488;SDS011;64069;46.396;48.102;2023-09-18T08:59:21;2.85;;;1.75;;
75488;SDS011;64069;46.396;48.102;2023-09-18T09:01:50;4.00;;;2.00;;
75488;SDS011;64069;46.396;48.102;2023-09-18T09:04:17;4.53;;;2.13;;
75488;SDS011;64069;46.396;48.102;2023-09-18T09:06:43;3.63;;;1.83;;
75488;SDS011;64069;46.396;48.102;2023-09-18T09:09:09;3.67;;;2.10;;
75488;SDS011;64069;46.396;48.102;2023-09-18T09:11:38;4.65;;;2.00;;
75488;SDS011;64069;46.396;48.102;2023-09-18T09:14:13;4.00;;;1.75;;
75488;SDS011;64069;46.396;48.102;2023-09-18T09:16:56;6.45;;;1.98;;
75488;SDS011;64069;46.396;48.102;2023-09-18T09:19:27;3.00;;;2.10;;
75488;SDS011;64069;46.396;48.102;2023-09-18T09:21:55;2.55;;;1.77;;
75488;SDS011;64069;46.396;48.102;2023-09-18T09:24:36;3.55;;;2.20;;
75488;SDS011;64069;46.396;48.102;2023-09-18T09:27:02;4.28;;;2.08;;
75488;SDS011;64069;46.396;48.102;2023-09-18T09:29:30;4.40;;;1.88;;
75488;SDS011;64069;46.396;48.102;2023-09-18T09:31:58;3.13;;;2.05;;
75488;SDS011;64069;46.396;48.102;2023-09-18T09:34:38;3.45;;;1.80;;
75488;SDS011;64069;46.396;48.102;2023-09-18T09:37:04;3.95;;;2.08;;
75488;SDS011;64069;46.396;48.102;2023-09-18T09:39:30;3.22;;;1.90;;
75488;SDS011;64069;46.396;48.102;2023-09-18T09:41:59;2.75;;;1.80;;
75488;SDS011;64069;46.396;48.102;2023-09-18T09:44:32;3.53;;;2.15;;
75488;SDS011;64069;46.396;48.102;2023-09-18T09:46:58;2.50;;;1.70;;
75488;SDS011;64069;46.396;48.102;2023-09-18T09:49:25;3.55;;;1.90;;
75488;SDS011;64069;46.396;48.102;2023-09-18T09:51:53;4.65;;;2.03;;
75488;SDS011;64069;46.396;48.102;2023-09-18T09:54:31;3.30;;;1.92;;
75488;SDS011;64069;46.396;48.102;2023-09-18T09:57:06;3.60;;;1.80;;
75488;SDS011;64069;46.396;48.102;2023-09-18T09:59:32;4.53;;;2.00;;
75488;SDS011;64069;46.396;48.102;2023-09-18T10:02:00;3.45;;;2.15;;
75488;SDS011;64069;46.396;48.102;2023-09-18T10:04:28;3.17;;;1.85;;
75488;SDS011;64069;46.396;48.102;2023-09-18T10:07:06;5.00;;;2.10;;
75488;SDS011;64069;46.396;48.102;2023-09-18T10:09:34;6.82;;;1.92;;
75488;SDS011;64069;46.396;48.102;2023-09-18T10:12:03;4.25;;;1.80;;
75488;SDS011;64069;46.396;48.102;2023-09-18T10:14:35;4.80;;;2.92;;
75488;SDS011;64069;46.396;48.102;2023-09-18T10:17:25;6.18;;;3.70;;
75488;SDS011;64069;46.396;48.102;2023-09-18T10:22:45;2.65;;;1.60;;
75488;SDS011;64069;46.396;48.102;2023-09-18T10:25:17;3.93;;;1.80;;
75488;SDS011;64069;46.396;48.102;2023-09-18T10:27:48;4.95;;;2.10;;
75488;SDS011;64069;46.396;48.102;2023-09-18T10:30:19;2.60;;;1.60;;
75488;SDS011;64069;46.396;48.102;2023-09-18T10:32:48;3.38;;;1.60;;
75488;SDS011;64069;46.396;48.102;2023-09-18T10:35:15;3.30;;;2.00;;
75488;SDS011;64069;46.396;48.102;2023-09-18T10:37:42;4.85;;;2.20;;
75488;SDS011;64069;46.396;48.102;2023-09-18T10:40:11;2.65;;;1.73;;
75488;SDS011;64069;46.396;48.102;2023-09-18T10:42:38;3.28;;;1.60;;
75488;SDS011;64069;46.396;48.102;2023-09-18T10:45:06;3.08;;;1.70;;
75488;SDS011;64069;46.396;48.102;2023-09-18T10:47:39;7.70;;;1.83;;
75488;SDS011;64069;46.396;48.102;2023-09-18T10:50:06;3.70;;;1.90;;
75488;SDS011;64069;46.396;48.102;2023-09-18T10:52:34;3.85;;;2.00;;
75488;SDS011;64069;46.396;48.102;2023-09-18T10:55:01;3.92;;;1.95;;
75488;SDS011;64069;46.396;48.102;2023-09-18T10:57:49;2.38;;;1.63;;
75488;SDS011;64069;46.396;48.102;2023-09-18T11:00:17;3.95;;;2.00;;
75488;SDS011;64069;46.396;48.102;2023-09-18T11:02:55;3.22;;;1.90;;
75488;SDS011;64069;46.396;48.102;2023-09-18T11:05:39;4.00;;;1.98;;
75488;SDS011;64069;46.396;48.102;2023-09-18T11:10:55;4.65;;;1.65;;
75488;SDS011;64069;46.396;48.102;2023-09-18T11:13:30;3.25;;;1.60;;
75488;SDS011;64069;46.396;48.102;2023-09-18T11:16:12;7.47;;;1.75;;
75488;SDS011;64069;46.396;48.102;2023-09-18T11:18:38;2.30;;;1.60;;
75488;SDS011;64069;46.396;48.102;2023-09-18T11:21:11;3.08;;;1.65;;
75488;SDS011;64069;46.396;48.102;2023-09-18T11:23:38;2.58;;;1.58;;
75488;SDS011;64069;46.396;48.102;2023-09-18T11:26:08;2.88;;;1.70;;
75488;SDS011;64069;46.396;48.102;2023-09-18T11:28:35;2.78;;;1.80;;
75488;SDS011;64069;46.396;48.102;2023-09-18T11:31:03;2.80;;;1.80;;
75488;SDS011;64069;46.396;48.102;2023-09-18T11:33:40;3.13;;;1.70;;
75488;SDS011;64069;46.396;48.102;2023-09-18T11:36:14;7.85;;;2.03;;
75488;SDS011;64069;46.396;48.102;2023-09-18T11:38:59;4.05;;;1.80;;
75488;SDS011;64069;46.396;48.102;2023-09-18T11:41:30;19.63;;;11.48;;
75488;SDS011;64069;46.396;48.102;2023-09-18T11:46:53;3.83;;;1.50;;
75488;SDS011;64069;46.396;48.102;2023-09-18T11:49:22;3.38;;;1.95;;
75488;SDS011;64069;46.396;48.102;2023-09-18T11:51:52;3.45;;;2.08;;
75488;SDS011;64069;46.396;48.102;2023-09-18T11:54:19;4.43;;;1.90;;
75488;SDS011;64069;46.396;48.102;2023-09-18T11:56:46;2.88;;;1.65;;
75488;SDS011;64069;46.396;48.102;2023-09-18T11:59:12;3.70;;;1.88;;
75488;SDS011;64069;46.396;48.102;2023-09-18T12:01:39;3.05;;;1.70;;
75488;SDS011;64069;46.396;48.102;2023-09-18T12:04:05;8.48;;;1.70;;
75488;SDS011;64069;46.396;48.102;2023-09-18T12:06:40;5.57;;;1.88;;
75488;SDS011;64069;46.396;48.102;2023-09-18T12:09:07;2.85;;;1.77;;
75488;SDS011;64069;46.396;48.102;2023-09-18T12:11:35;2.53;;;1.52;;
75488;SDS011;64069;46.396;48.102;2023-09-18T12:14:02;3.20;;;1.60;;
75488;SDS011;64069;46.396;48.102;2023-09-18T12:16:29;3.75;;;1.80;;
75488;SDS011;64069;46.396;48.102;2023-09-18T12:18:55;3.92;;;1.95;;
75488;SDS011;64069;46.396;48.102;2023-09-18T12:21:22;4.38;;;1.60;;
75488;SDS011;64069;46.396;48.102;2023-09-18T12:23:48;3.40;;;1.42;;
75488;SDS011;64069;46.396;48.102;2023-09-18T12:26:16;4.68;;;1.60;;
75488;SDS011;64069;46.396;48.102;2023-09-18T12:28:45;2.60;;;1.58;;
75488;SDS011;64069;46.396;48.102;2023-09-18T12:31:12;3.78;;;1.90;;
75488;SDS011;64069;46.396;48.102;2023-09-18T12:33:39;3.80;;;2.00;;
75488;SDS011;64069;46.396;48.102;2023-09-18T12:36:07;4.32;;;1.88;;
75488;SDS011;64069;46.396;48.102;2023-09-18T12:38:34;3.90;;;1.90;;
75488;SDS011;64069;46.396;48.102;2023-09-18T12:41:02;2.90;;;1.90;;
75488;SDS011;64069;46.396;48.102;2023-09-18T12:43:33;5.93;;;2.22;;
75488;SDS011;64069;46.396;48.102;2023-09-18T12:46:08;4.80;;;2.25;;
75488;SDS011;64069;46.396;48.102;2023-09-18T12:48:37;5.78;;;2.20;;
75488;SDS011;64069;46.396;48.102;2023-09-18T12:51:11;8.73;;;2.28;;
75488;SDS011;64069;46.396;48.102;2023-09-18T12:53:37;4.35;;;1.92;;
75488;SDS011;64069;46.396;48.102;2023-09-18T12:56:08;3.72;;;2.03;;
75488;SDS011;64069;46.396;48.102;2023-09-18T12:58:41;3.40;;;1.77;;
75488;SDS011;64069;46.396;48.102;2023-09-18T13:01:10;5.20;;;1.90;;
75488;SDS011;64069;46.396;48.102;2023-09-18T13:03:44;3.55;;;1.70;;
75488;SDS011;64069;46.396;48.102;2023-09-18T13:06:18;3.80;;;1.98;;
75488;SDS011;64069;46.396;48.102;2023-09-18T13:08:44;5.53;;;2.00;;
75488;SDS011;64069;46.396;48.102;2023-09-18T13:11:12;3.80;;;2.20;;
75488;SDS011;64069;46.396;48.102;2023-09-18T13:13:41;4.22;;;2.17;;
75488;SDS011;64069;46.396;48.102;2023-09-18T13:16:09;4.25;;;1.83;;
75488;SDS011;64069;46.396;48.102;2023-09-18T13:18:36;3.47;;;1.95;;
75488;SDS011;64069;46.396;48.102;2023-09-18T13:21:11;6.53;;;2.20;;
75488;SDS011;64069;46.396;48.102;2023-09-18T13:23:42;7.13;;;2.40;;
75488;SDS011;64069;46.396;48.102;2023-09-18T13:26:08;3.95;;;1.88;;
75488;SDS011;64069;46.396;48.102;2023-09-18T13:28:34;3.88;;;1.88;;
75488;SDS011;64069;46.396;48.102;2023-09-18T13:31:02;7.07;;;2.45;;
75488;SDS011;64069;46.396;48.102;2023-09-18T13:33:37;5.40;;;2.00;;
75488;SDS011;64069;46.396;48.102;2023-09-18T13:36:05;4.65;;;1.98;;
75488;SDS011;64069;46.396;48.102;2023-09-18T13:38:32;4.40;;;2.13;;
75488;SDS011;64069;46.396;48.102;2023-09-18T13:40:58;4.25;;;1.92;;
75488;SDS011;64069;46.396;48.102;2023-09-18T13:43:24;3.88;;;1.95;;
75488;SDS011;64069;46.396;48.102;2023-09-18T13:45:52;4.20;;;2.42;;
75488;SDS011;64069;46.396;48.102;2023-09-18T13:48:20;3.63;;;2.15;;
75488;SDS011;64069;46.396;48.102;2023-09-18T13:50:46;3.22;;;1.80;;
75488;SDS011;64069;46.396;48.102;2023-09-18T13:53:13;3.33;;;2.08;;
75488;SDS011;64069;46.396;48.102;2023-09-18T13:55:39;4.85;;;2.38;;
75488;SDS011;64069;46.396;48.102;2023-09-18T13:58:06;5.07;;;2.10;;
75488;SDS011;64069;46.396;48.102;2023-09-18T14:00:32;3.60;;;2.20;;
75488;SDS011;64069;46.396;48.102;2023-09-18T14:02:59;3.78;;;2.03;;
75488;SDS011;64069;46.396;48.102;2023-09-18T14:05:25;3.85;;;2.10;;
75488;SDS011;64069;46.396;48.102;2023-09-18T14:07:53;5.40;;;2.00;;
75488;SDS011;64069;46.396;48.102;2023-09-18T14:10:25;5.45;;;2.40;;
75488;SDS011;64069;46.396;48.102;2023-09-18T14:12:52;6.20;;;2.58;;
75488;SDS011;64069;46.396;48.102;2023-09-18T14:15:18;13.25;;;2.55;;
75488;SDS011;64069;46.396;48.102;2023-09-18T14:17:44;5.32;;;2.92;;
75488;SDS011;64069;46.396;48.102;2023-09-18T14:20:10;6.50;;;2.90;;
75488;SDS011;64069;46.396;48.102;2023-09-18T14:22:37;4.88;;;2.58;;
75488;SDS011;64069;46.396;48.102;2023-09-18T14:25:03;4.57;;;2.58;;
75488;SDS011;64069;46.396;48.102;2023-09-18T14:27:34;3.47;;;2.20;;
75488;SDS011;64069;46.396;48.102;2023-09-18T14:30:02;3.97;;;2.47;;
75488;SDS011;64069;46.396;48.102;2023-09-18T14:32:32;5.20;;;2.53;;
75488;SDS011;64069;46.396;48.102;2023-09-18T14:35:02;5.38;;;2.70;;
75488;SDS011;64069;46.396;48.102;2023-09-18T14:37:30;10.13;;;3.03;;
75488;SDS011;64069;46.396;48.102;2023-09-18T14:39:57;9.50;;;3.05;;
75488;SDS011;64069;46.396;48.102;2023-09-18T14:42:23;7.40;;;3.67;;
75488;SDS011;64069;46.396;48.102;2023-09-18T14:44:49;6.32;;;3.30;;
75488;SDS011;64069;46.396;48.102;2023-09-18T14:47:16;5.82;;;3.20;;
75488;SDS011;64069;46.396;48.102;2023-09-18T14:49:42;7.63;;;2.78;;
75488;SDS011;64069;46.396;48.102;2023-09-18T14:52:12;6.90;;;2.72;;